sensor_id;sensor_type;location;lat;lon;timestamp;P1;durP1;ratioP1;P2;durP2;ratioP2
71639;SDS011;60912;48.968;10.124;2023-06-26T00:02:23;9.27;;;6.07;;
71639;SDS011;60912;48.968;10.124;2023-06-26T00:04:49;8.63;;;5.73;;
71639;SDS011;60912;48.968;10.124;2023-06-26T00:07:18;9.07;;;6.03;;
71639;SDS011;60912;48.968;10.124;2023-06-26T00:09:44;8.90;;;6.05;;
71639;SDS011;60912;48.968;10.124;2023-06-26T00:12:09;8.50;;;6.20;;
71639;SDS011;60912;48.968;10.124;2023-06-26T00:14:35;8.50;;;5.60;;
71639;SDS011;60912;48.968;10.124;2023-06-26T00:17:03;8.40;;;6.37;;
71639;SDS011;60912;48.968;10.124;2023-06-26T00:19:29;11.25;;;6.05;;
71639;SDS011;60912;48.968;10.124;2023-06-26T00:21:54;9.57;;;5.97;;
71639;SDS011;60912;48.968;10.124;2023-06-26T00:24:20;8.98;;;6.10;;
71639;SDS011;60912;48.968;10.124;2023-06-26T00:26:46;9.03;;;6.03;;
71639;SDS011;60912;48.968;10.124;2023-06-26T00:29:12;9.30;;;5.72;;
71639;SDS011;60912;48.968;10.124;2023-06-26T00:31:37;8.13;;;5.87;;
71639;SDS011;60912;48.968;10.124;2023-06-26T00:34:05;10.25;;;6.35;;
71639;SDS011;60912;48.968;10.124;2023-06-26T00:36:30;9.90;;;6.17;;
71639;SDS011;60912;48.968;10.124;2023-06-26T00:38:56;7.90;;;5.70;;
71639;SDS011;60912;48.968;10.124;2023-06-26T00:41:21;11.25;;;6.60;;
71639;SDS011;60912;48.968;10.124;2023-06-26T00:43:46;8.63;;;5.40;;
71639;SDS011;60912;48.968;10.124;2023-06-26T00:46:12;9.10;;;6.40;;
71639;SDS011;60912;48.968;10.124;2023-06-26T00:48:39;10.85;;;6.22;;
71639;SDS011;60912;48.968;10.124;2023-06-26T00:51:06;8.82;;;5.78;;
71639;SDS011;60912;48.968;10.124;2023-06-26T00:53:32;8.30;;;6.00;;
71639;SDS011;60912;48.968;10.124;2023-06-26T00:55:59;8.27;;;5.70;;
71639;SDS011;60912;48.968;10.124;2023-06-26T00:58:25;9.50;;;6.00;;
71639;SDS011;60912;48.968;10.124;2023-06-26T01:00:51;10.63;;;6.50;;
71639;SDS011;60912;48.968;10.124;2023-06-26T01:03:17;10.25;;;6.47;;
71639;SDS011;60912;48.968;10.124;2023-06-26T01:05:44;8.93;;;6.20;;
71639;SDS011;60912;48.968;10.124;2023-06-26T01:08:11;11.98;;;6.85;;
71639;SDS011;60912;48.968;10.124;2023-06-26T01:10:38;9.07;;;6.30;;
71639;SDS011;60912;48.968;10.124;2023-06-26T01:13:03;8.50;;;6.30;;
71639;SDS011;60912;48.968;10.124;2023-06-26T01:15:29;10.07;;;6.03;;
71639;SDS011;60912;48.968;10.124;2023-06-26T01:17:55;9.30;;;6.40;;
71639;SDS011;60912;48.968;10.124;2023-06-26T01:20:24;8.88;;;6.07;;
71639;SDS011;60912;48.968;10.124;2023-06-26T01:23:00;9.00;;;6.10;;
71639;SDS011;60912;48.968;10.124;2023-06-26T01:28:04;10.15;;;6.18;;
71639;SDS011;60912;48.968;10.124;2023-06-26T01:30:35;10.73;;;6.57;;
71639;SDS011;60912;48.968;10.124;2023-06-26T01:33:04;10.45;;;6.38;;
71639;SDS011;60912;48.968;10.124;2023-06-26T01:35:29;8.77;;;6.10;;
71639;SDS011;60912;48.968;10.124;2023-06-26T01:38:11;8.53;;;6.00;;
71639;SDS011;60912;48.968;10.124;2023-06-26T01:40:43;8.63;;;5.95;;
71639;SDS011;60912;48.968;10.124;2023-06-26T01:43:18;8.10;;;5.90;;
71639;SDS011;60912;48.968;10.124;2023-06-26T01:45:45;9.23;;;6.38;;
71639;SDS011;60912;48.968;10.124;2023-06-26T01:48:13;8.60;;;5.78;;
71639;SDS011;60912;48.968;10.124;2023-06-26T01:50:41;8.60;;;5.80;;
71639;SDS011;60912;48.968;10.124;2023-06-26T01:53:13;8.95;;;6.18;;
71639;SDS011;60912;48.968;10.124;2023-06-26T01:56:06;8.38;;;6.00;;
71639;SDS011;60912;48.968;10.124;2023-06-26T01:58:34;8.55;;;5.85;;
71639;SDS011;60912;48.968;10.124;2023-06-26T02:01:02;9.45;;;5.88;;
71639;SDS011;60912;48.968;10.124;2023-06-26T02:03:27;11.37;;;6.27;;
71639;SDS011;60912;48.968;10.124;2023-06-26T02:05:53;10.50;;;6.60;;
71639;SDS011;60912;48.968;10.124;2023-06-26T02:08:18;10.13;;;6.30;;
71639;SDS011;60912;48.968;10.124;2023-06-26T02:10:44;8.75;;;6.15;;
71639;SDS011;60912;48.968;10.124;2023-06-26T02:13:09;9.50;;;6.00;;
71639;SDS011;60912;48.968;10.124;2023-06-26T02:15:34;8.87;;;6.27;;
71639;SDS011;60912;48.968;10.124;2023-06-26T02:18:00;10.90;;;6.33;;
71639;SDS011;60912;48.968;10.124;2023-06-26T02:20:25;8.93;;;5.97;;
71639;SDS011;60912;48.968;10.124;2023-06-26T02:22:50;9.13;;;5.93;;
71639;SDS011;60912;48.968;10.124;2023-06-26T02:25:17;8.35;;;6.07;;
71639;SDS011;60912;48.968;10.124;2023-06-26T02:27:43;9.40;;;6.50;;
71639;SDS011;60912;48.968;10.124;2023-06-26T02:30:08;9.65;;;6.05;;
71639;SDS011;60912;48.968;10.124;2023-06-26T02:32:34;8.93;;;6.03;;
71639;SDS011;60912;48.968;10.124;2023-06-26T02:34:59;9.00;;;5.77;;
71639;SDS011;60912;48.968;10.124;2023-06-26T02:37:25;9.07;;;6.53;;
71639;SDS011;60912;48.968;10.124;2023-06-26T02:39:50;11.80;;;6.47;;
71639;SDS011;60912;48.968;10.124;2023-06-26T02:42:16;9.77;;;6.30;;
71639;SDS011;60912;48.968;10.124;2023-06-26T02:44:41;10.40;;;6.32;;
71639;SDS011;60912;48.968;10.124;2023-06-26T02:47:06;8.80;;;5.83;;
71639;SDS011;60912;48.968;10.124;2023-06-26T02:49:32;10.33;;;6.30;;
71639;SDS011;60912;48.968;10.124;2023-06-26T02:51:57;10.07;;;6.27;;
71639;SDS011;60912;48.968;10.124;2023-06-26T02:54:22;10.17;;;6.90;;
71639;SDS011;60912;48.968;10.124;2023-06-26T02:56:48;9.03;;;6.57;;
71639;SDS011;60912;48.968;10.124;2023-06-26T02:59:13;9.17;;;6.00;;
71639;SDS011;60912;48.968;10.124;2023-06-26T03:01:38;9.65;;;5.95;;
71639;SDS011;60912;48.968;10.124;2023-06-26T03:04:04;8.63;;;6.10;;
71639;SDS011;60912;48.968;10.124;2023-06-26T03:06:29;10.73;;;6.27;;
71639;SDS011;60912;48.968;10.124;2023-06-26T03:08:55;10.00;;;6.50;;
71639;SDS011;60912;48.968;10.124;2023-06-26T03:11:20;8.63;;;6.32;;
71639;SDS011;60912;48.968;10.124;2023-06-26T03:13:45;11.77;;;6.80;;
71639;SDS011;60912;48.968;10.124;2023-06-26T03:16:11;11.17;;;6.37;;
71639;SDS011;60912;48.968;10.124;2023-06-26T03:18:36;9.27;;;6.30;;
71639;SDS011;60912;48.968;10.124;2023-06-26T03:21:02;8.77;;;6.00;;
71639;SDS011;60912;48.968;10.124;2023-06-26T03:23:27;8.70;;;6.13;;
71639;SDS011;60912;48.968;10.124;2023-06-26T03:25:53;8.83;;;6.13;;
71639;SDS011;60912;48.968;10.124;2023-06-26T03:28:18;8.50;;;5.88;;
71639;SDS011;60912;48.968;10.124;2023-06-26T03:30:43;8.87;;;6.20;;
71639;SDS011;60912;48.968;10.124;2023-06-26T03:33:09;8.73;;;6.23;;
71639;SDS011;60912;48.968;10.124;2023-06-26T03:35:34;10.90;;;6.90;;
71639;SDS011;60912;48.968;10.124;2023-06-26T03:38:00;8.70;;;6.18;;
71639;SDS011;60912;48.968;10.124;2023-06-26T03:40:26;10.43;;;6.50;;
71639;SDS011;60912;48.968;10.124;2023-06-26T03:42:52;8.70;;;6.13;;
71639;SDS011;60912;48.968;10.124;2023-06-26T03:45:17;9.00;;;6.60;;
71639;SDS011;60912;48.968;10.124;2023-06-26T03:47:43;9.10;;;6.30;;
71639;SDS011;60912;48.968;10.124;2023-06-26T03:50:09;9.53;;;6.53;;
71639;SDS011;60912;48.968;10.124;2023-06-26T03:52:34;8.50;;;6.10;;
71639;SDS011;60912;48.968;10.124;2023-06-26T03:55:00;8.57;;;6.07;;
71639;SDS011;60912;48.968;10.124;2023-06-26T03:57:26;8.47;;;6.03;;
71639;SDS011;60912;48.968;10.124;2023-06-26T03:59:51;9.18;;;5.95;;
71639;SDS011;60912;48.968;10.124;2023-06-26T04:02:17;9.07;;;6.80;;
71639;SDS011;60912;48.968;10.124;2023-06-26T04:04:43;8.30;;;6.07;;
71639;SDS011;60912;48.968;10.124;2023-06-26T04:07:09;9.93;;;6.55;;
71639;SDS011;60912;48.968;10.124;2023-06-26T04:09:34;8.43;;;6.00;;
71639;SDS011;60912;48.968;10.124;2023-06-26T04:11:59;8.20;;;5.90;;
71639;SDS011;60912;48.968;10.124;2023-06-26T04:14:25;8.73;;;6.43;;
71639;SDS011;60912;48.968;10.124;2023-06-26T04:16:50;7.77;;;5.97;;
71639;SDS011;60912;48.968;10.124;2023-06-26T04:19:16;9.00;;;6.28;;
71639;SDS011;60912;48.968;10.124;2023-06-26T04:21:41;8.13;;;6.00;;
71639;SDS011;60912;48.968;10.124;2023-06-26T04:24:06;8.53;;;6.47;;
71639;SDS011;60912;48.968;10.124;2023-06-26T04:26:32;8.50;;;6.23;;
71639;SDS011;60912;48.968;10.124;2023-06-26T04:28:57;8.27;;;6.50;;
71639;SDS011;60912;48.968;10.124;2023-06-26T04:31:23;8.17;;;6.50;;
71639;SDS011;60912;48.968;10.124;2023-06-26T04:33:48;7.70;;;6.07;;
71639;SDS011;60912;48.968;10.124;2023-06-26T04:36:19;7.97;;;6.35;;
71639;SDS011;60912;48.968;10.124;2023-06-26T04:38:45;9.27;;;6.27;;
71639;SDS011;60912;48.968;10.124;2023-06-26T04:41:10;9.23;;;6.47;;
71639;SDS011;60912;48.968;10.124;2023-06-26T04:43:36;8.73;;;6.23;;
71639;SDS011;60912;48.968;10.124;2023-06-26T04:46:04;8.30;;;6.17;;
71639;SDS011;60912;48.968;10.124;2023-06-26T04:48:30;8.18;;;6.55;;
71639;SDS011;60912;48.968;10.124;2023-06-26T04:50:56;8.48;;;6.32;;
71639;SDS011;60912;48.968;10.124;2023-06-26T04:53:24;9.70;;;6.37;;
71639;SDS011;60912;48.968;10.124;2023-06-26T04:55:52;8.15;;;6.20;;
71639;SDS011;60912;48.968;10.124;2023-06-26T04:58:18;10.52;;;6.13;;
71639;SDS011;60912;48.968;10.124;2023-06-26T05:00:44;13.05;;;6.40;;
71639;SDS011;60912;48.968;10.124;2023-06-26T05:03:11;9.20;;;6.37;;
71639;SDS011;60912;48.968;10.124;2023-06-26T05:05:37;9.05;;;6.00;;
71639;SDS011;60912;48.968;10.124;2023-06-26T05:10:41;9.13;;;6.07;;
71639;SDS011;60912;48.968;10.124;2023-06-26T05:13:07;8.70;;;5.97;;
71639;SDS011;60912;48.968;10.124;2023-06-26T05:15:32;12.20;;;6.27;;
71639;SDS011;60912;48.968;10.124;2023-06-26T05:17:57;9.27;;;5.80;;
71639;SDS011;60912;48.968;10.124;2023-06-26T05:20:23;9.50;;;6.20;;
71639;SDS011;60912;48.968;10.124;2023-06-26T05:22:48;7.30;;;6.00;;
71639;SDS011;60912;48.968;10.124;2023-06-26T05:25:15;9.80;;;5.90;;
71639;SDS011;60912;48.968;10.124;2023-06-26T05:27:40;9.50;;;5.85;;
71639;SDS011;60912;48.968;10.124;2023-06-26T05:30:06;9.90;;;5.80;;
71639;SDS011;60912;48.968;10.124;2023-06-26T05:32:33;10.05;;;5.65;;
71639;SDS011;60912;48.968;10.124;2023-06-26T05:34:59;8.88;;;6.15;;
71639;SDS011;60912;48.968;10.124;2023-06-26T05:37:28;11.77;;;6.00;;
71639;SDS011;60912;48.968;10.124;2023-06-26T05:39:54;9.68;;;6.25;;
71639;SDS011;60912;48.968;10.124;2023-06-26T05:42:19;8.40;;;5.73;;
71639;SDS011;60912;48.968;10.124;2023-06-26T05:44:45;13.80;;;5.67;;
71639;SDS011;60912;48.968;10.124;2023-06-26T05:47:10;8.15;;;5.78;;
71639;SDS011;60912;48.968;10.124;2023-06-26T05:49:36;8.50;;;6.03;;
71639;SDS011;60912;48.968;10.124;2023-06-26T05:52:01;7.40;;;5.80;;
71639;SDS011;60912;48.968;10.124;2023-06-26T05:54:27;8.00;;;5.53;;
71639;SDS011;60912;48.968;10.124;2023-06-26T05:56:54;7.97;;;5.73;;
71639;SDS011;60912;48.968;10.124;2023-06-26T05:59:24;7.28;;;5.90;;
71639;SDS011;60912;48.968;10.124;2023-06-26T06:01:51;8.68;;;5.70;;
71639;SDS011;60912;48.968;10.124;2023-06-26T06:04:17;7.27;;;5.87;;
71639;SDS011;60912;48.968;10.124;2023-06-26T06:06:42;8.32;;;5.57;;
71639;SDS011;60912;48.968;10.124;2023-06-26T06:09:08;8.83;;;5.90;;
71639;SDS011;60912;48.968;10.124;2023-06-26T06:11:33;9.43;;;5.97;;
71639;SDS011;60912;48.968;10.124;2023-06-26T06:13:58;7.27;;;5.80;;
71639;SDS011;60912;48.968;10.124;2023-06-26T06:16:25;12.00;;;5.95;;
71639;SDS011;60912;48.968;10.124;2023-06-26T06:18:50;9.82;;;5.70;;
71639;SDS011;60912;48.968;10.124;2023-06-26T06:21:15;7.23;;;5.20;;
71639;SDS011;60912;48.968;10.124;2023-06-26T06:23:41;7.27;;;5.23;;
71639;SDS011;60912;48.968;10.124;2023-06-26T06:26:06;8.37;;;5.20;;
71639;SDS011;60912;48.968;10.124;2023-06-26T06:28:32;7.93;;;5.63;;
71639;SDS011;60912;48.968;10.124;2023-06-26T06:30:57;7.57;;;5.70;;
71639;SDS011;60912;48.968;10.124;2023-06-26T06:33:22;8.50;;;5.17;;
71639;SDS011;60912;48.968;10.124;2023-06-26T06:35:48;10.03;;;5.33;;
71639;SDS011;60912;48.968;10.124;2023-06-26T06:38:13;6.37;;;4.93;;
71639;SDS011;60912;48.968;10.124;2023-06-26T06:40:38;6.83;;;4.90;;
71639;SDS011;60912;48.968;10.124;2023-06-26T06:43:04;7.30;;;5.50;;
71639;SDS011;60912;48.968;10.124;2023-06-26T06:45:29;6.05;;;4.90;;
71639;SDS011;60912;48.968;10.124;2023-06-26T06:47:55;9.23;;;5.17;;
71639;SDS011;60912;48.968;10.124;2023-06-26T06:50:20;7.57;;;5.27;;
71639;SDS011;60912;48.968;10.124;2023-06-26T06:52:46;6.70;;;5.35;;
71639;SDS011;60912;48.968;10.124;2023-06-26T06:55:11;5.87;;;4.83;;
71639;SDS011;60912;48.968;10.124;2023-06-26T06:57:37;6.17;;;4.77;;
71639;SDS011;60912;48.968;10.124;2023-06-26T07:00:10;7.50;;;5.25;;
71639;SDS011;60912;48.968;10.124;2023-06-26T07:02:37;7.38;;;4.80;;
71639;SDS011;60912;48.968;10.124;2023-06-26T07:05:04;8.02;;;5.15;;
71639;SDS011;60912;48.968;10.124;2023-06-26T07:07:31;6.50;;;4.90;;
71639;SDS011;60912;48.968;10.124;2023-06-26T07:09:58;6.30;;;5.32;;
71639;SDS011;60912;48.968;10.124;2023-06-26T07:12:28;8.30;;;5.55;;
71639;SDS011;60912;48.968;10.124;2023-06-26T07:14:53;6.20;;;4.70;;
71639;SDS011;60912;48.968;10.124;2023-06-26T07:17:19;8.75;;;5.53;;
71639;SDS011;60912;48.968;10.124;2023-06-26T07:19:46;5.65;;;4.82;;
71639;SDS011;60912;48.968;10.124;2023-06-26T07:22:11;7.05;;;5.40;;
71639;SDS011;60912;48.968;10.124;2023-06-26T07:24:38;7.13;;;5.27;;
71639;SDS011;60912;48.968;10.124;2023-06-26T07:27:03;8.93;;;5.35;;
71639;SDS011;60912;48.968;10.124;2023-06-26T07:29:29;7.07;;;5.47;;
71639;SDS011;60912;48.968;10.124;2023-06-26T07:31:54;6.30;;;4.80;;
71639;SDS011;60912;48.968;10.124;2023-06-26T07:34:19;8.50;;;5.10;;
71639;SDS011;60912;48.968;10.124;2023-06-26T07:36:45;6.75;;;5.35;;
71639;SDS011;60912;48.968;10.124;2023-06-26T07:39:10;7.57;;;4.93;;
71639;SDS011;60912;48.968;10.124;2023-06-26T07:41:35;6.20;;;5.20;;
71639;SDS011;60912;48.968;10.124;2023-06-26T07:44:01;6.77;;;5.40;;
71639;SDS011;60912;48.968;10.124;2023-06-26T07:46:26;9.27;;;4.73;;
71639;SDS011;60912;48.968;10.124;2023-06-26T07:48:52;8.67;;;5.13;;
71639;SDS011;60912;48.968;10.124;2023-06-26T07:51:17;7.40;;;4.90;;
71639;SDS011;60912;48.968;10.124;2023-06-26T07:53:43;6.78;;;5.03;;
71639;SDS011;60912;48.968;10.124;2023-06-26T07:56:08;7.50;;;5.10;;
71639;SDS011;60912;48.968;10.124;2023-06-26T07:58:34;6.90;;;4.87;;
71639;SDS011;60912;48.968;10.124;2023-06-26T08:00:59;6.03;;;4.70;;
71639;SDS011;60912;48.968;10.124;2023-06-26T08:03:24;9.17;;;5.47;;
71639;SDS011;60912;48.968;10.124;2023-06-26T08:05:50;7.20;;;4.93;;
71639;SDS011;60912;48.968;10.124;2023-06-26T08:08:15;6.63;;;5.30;;
71639;SDS011;60912;48.968;10.124;2023-06-26T08:10:41;7.33;;;5.13;;
71639;SDS011;60912;48.968;10.124;2023-06-26T08:13:06;5.53;;;4.67;;
71639;SDS011;60912;48.968;10.124;2023-06-26T08:15:31;7.05;;;4.50;;
71639;SDS011;60912;48.968;10.124;2023-06-26T08:17:57;5.70;;;4.60;;
71639;SDS011;60912;48.968;10.124;2023-06-26T08:20:22;7.07;;;4.87;;
71639;SDS011;60912;48.968;10.124;2023-06-26T08:22:48;6.00;;;4.63;;
71639;SDS011;60912;48.968;10.124;2023-06-26T08:25:16;6.18;;;4.90;;
71639;SDS011;60912;48.968;10.124;2023-06-26T08:27:42;15.77;;;4.80;;
71639;SDS011;60912;48.968;10.124;2023-06-26T08:30:07;7.33;;;4.30;;
71639;SDS011;60912;48.968;10.124;2023-06-26T08:32:33;6.47;;;4.45;;
71639;SDS011;60912;48.968;10.124;2023-06-26T08:34:58;7.40;;;4.20;;
71639;SDS011;60912;48.968;10.124;2023-06-26T08:37:24;6.30;;;4.23;;
71639;SDS011;60912;48.968;10.124;2023-06-26T08:39:49;4.88;;;4.13;;
71639;SDS011;60912;48.968;10.124;2023-06-26T08:42:15;9.00;;;4.00;;
71639;SDS011;60912;48.968;10.124;2023-06-26T08:44:40;7.93;;;4.40;;
71639;SDS011;60912;48.968;10.124;2023-06-26T08:47:06;6.38;;;4.35;;
71639;SDS011;60912;48.968;10.124;2023-06-26T08:52:16;5.13;;;3.95;;
71639;SDS011;60912;48.968;10.124;2023-06-26T08:54:45;5.63;;;4.28;;
71639;SDS011;60912;48.968;10.124;2023-06-26T08:57:13;7.30;;;4.00;;
71639;SDS011;60912;48.968;10.124;2023-06-26T08:59:42;5.50;;;3.97;;
71639;SDS011;60912;48.968;10.124;2023-06-26T09:02:08;6.03;;;4.20;;
71639;SDS011;60912;48.968;10.124;2023-06-26T09:04:33;6.80;;;4.20;;
71639;SDS011;60912;48.968;10.124;2023-06-26T09:07:00;7.63;;;4.20;;
71639;SDS011;60912;48.968;10.124;2023-06-26T09:09:25;8.33;;;4.40;;
71639;SDS011;60912;48.968;10.124;2023-06-26T09:11:50;10.07;;;4.43;;
71639;SDS011;60912;48.968;10.124;2023-06-26T09:14:16;5.93;;;3.80;;
71639;SDS011;60912;48.968;10.124;2023-06-26T09:16:42;6.97;;;3.63;;
71639;SDS011;60912;48.968;10.124;2023-06-26T09:19:11;6.22;;;3.90;;
71639;SDS011;60912;48.968;10.124;2023-06-26T09:21:40;6.00;;;3.90;;
71639;SDS011;60912;48.968;10.124;2023-06-26T09:24:07;7.65;;;3.60;;
71639;SDS011;60912;48.968;10.124;2023-06-26T09:26:35;5.57;;;3.95;;
71639;SDS011;60912;48.968;10.124;2023-06-26T09:29:07;5.97;;;3.42;;
71639;SDS011;60912;48.968;10.124;2023-06-26T09:31:33;5.10;;;3.65;;
71639;SDS011;60912;48.968;10.124;2023-06-26T09:34:01;6.00;;;3.80;;
71639;SDS011;60912;48.968;10.124;2023-06-26T09:36:28;8.10;;;4.30;;
71639;SDS011;60912;48.968;10.124;2023-06-26T09:38:58;6.93;;;4.20;;
71639;SDS011;60912;48.968;10.124;2023-06-26T09:41:30;7.28;;;4.35;;
71639;SDS011;60912;48.968;10.124;2023-06-26T09:43:57;5.30;;;3.90;;
71639;SDS011;60912;48.968;10.124;2023-06-26T09:46:27;8.73;;;4.50;;
71639;SDS011;60912;48.968;10.124;2023-06-26T09:51:37;6.03;;;4.35;;
71639;SDS011;60912;48.968;10.124;2023-06-26T09:54:04;6.47;;;4.50;;
71639;SDS011;60912;48.968;10.124;2023-06-26T09:56:30;6.30;;;4.18;;
71639;SDS011;60912;48.968;10.124;2023-06-26T09:58:57;7.23;;;4.10;;
71639;SDS011;60912;48.968;10.124;2023-06-26T10:01:26;8.48;;;4.00;;
71639;SDS011;60912;48.968;10.124;2023-06-26T10:03:53;4.88;;;4.20;;
71639;SDS011;60912;48.968;10.124;2023-06-26T10:06:24;7.10;;;4.15;;
71639;SDS011;60912;48.968;10.124;2023-06-26T10:08:54;6.20;;;4.10;;
71639;SDS011;60912;48.968;10.124;2023-06-26T10:11:21;5.60;;;3.77;;
71639;SDS011;60912;48.968;10.124;2023-06-26T10:13:49;5.65;;;3.88;;
71639;SDS011;60912;48.968;10.124;2023-06-26T10:16:25;6.13;;;3.85;;
71639;SDS011;60912;48.968;10.124;2023-06-26T10:18:53;5.97;;;3.60;;
71639;SDS011;60912;48.968;10.124;2023-06-26T10:21:24;5.32;;;3.63;;
71639;SDS011;60912;48.968;10.124;2023-06-26T10:23:51;6.70;;;4.00;;
71639;SDS011;60912;48.968;10.124;2023-06-26T10:26:20;7.95;;;3.67;;
71639;SDS011;60912;48.968;10.124;2023-06-26T10:28:46;5.07;;;3.88;;
71639;SDS011;60912;48.968;10.124;2023-06-26T10:31:17;6.55;;;3.70;;
71639;SDS011;60912;48.968;10.124;2023-06-26T10:33:46;5.68;;;3.75;;
71639;SDS011;60912;48.968;10.124;2023-06-26T10:36:16;7.20;;;3.70;;
71639;SDS011;60912;48.968;10.124;2023-06-26T10:38:54;5.45;;;3.83;;
71639;SDS011;60912;48.968;10.124;2023-06-26T10:41:21;4.93;;;3.92;;
71639;SDS011;60912;48.968;10.124;2023-06-26T10:43:57;5.18;;;4.07;;
71639;SDS011;60912;48.968;10.124;2023-06-26T10:46:33;7.40;;;4.10;;
71639;SDS011;60912;48.968;10.124;2023-06-26T10:49:13;6.33;;;3.60;;
71639;SDS011;60912;48.968;10.124;2023-06-26T10:51:38;5.13;;;4.25;;
71639;SDS011;60912;48.968;10.124;2023-06-26T10:54:13;6.53;;;4.20;;
71639;SDS011;60912;48.968;10.124;2023-06-26T10:56:40;5.33;;;4.00;;
71639;SDS011;60912;48.968;10.124;2023-06-26T10:59:13;5.47;;;3.28;;
71639;SDS011;60912;48.968;10.124;2023-06-26T11:01:40;5.10;;;4.03;;
71639;SDS011;60912;48.968;10.124;2023-06-26T11:04:07;6.72;;;4.18;;
71639;SDS011;60912;48.968;10.124;2023-06-26T11:06:33;5.65;;;4.22;;
71639;SDS011;60912;48.968;10.124;2023-06-26T11:09:01;5.30;;;4.27;;
71639;SDS011;60912;48.968;10.124;2023-06-26T11:14:20;5.65;;;4.00;;
71639;SDS011;60912;48.968;10.124;2023-06-26T11:16:46;6.78;;;4.22;;
71639;SDS011;60912;48.968;10.124;2023-06-26T11:19:12;7.07;;;4.60;;
71639;SDS011;60912;48.968;10.124;2023-06-26T11:21:39;8.15;;;4.82;;
71639;SDS011;60912;48.968;10.124;2023-06-26T11:24:05;6.93;;;4.65;;
71639;SDS011;60912;48.968;10.124;2023-06-26T11:26:32;6.15;;;4.10;;
71639;SDS011;60912;48.968;10.124;2023-06-26T11:29:12;8.53;;;4.40;;
71639;SDS011;60912;48.968;10.124;2023-06-26T11:31:38;9.77;;;4.50;;
71639;SDS011;60912;48.968;10.124;2023-06-26T11:34:13;8.30;;;4.68;;
71639;SDS011;60912;48.968;10.124;2023-06-26T11:36:40;9.32;;;4.70;;
71639;SDS011;60912;48.968;10.124;2023-06-26T11:39:07;14.03;;;4.40;;
71639;SDS011;60912;48.968;10.124;2023-06-26T11:41:34;8.05;;;4.97;;
71639;SDS011;60912;48.968;10.124;2023-06-26T11:46:27;5.63;;;4.57;;
71639;SDS011;60912;48.968;10.124;2023-06-26T11:48:53;7.03;;;4.40;;
71639;SDS011;60912;48.968;10.124;2023-06-26T11:51:19;6.10;;;4.82;;
71639;SDS011;60912;48.968;10.124;2023-06-26T11:53:45;6.20;;;4.50;;
71639;SDS011;60912;48.968;10.124;2023-06-26T11:56:12;5.97;;;4.97;;
71639;SDS011;60912;48.968;10.124;2023-06-26T12:01:31;6.70;;;4.90;;
71639;SDS011;60912;48.968;10.124;2023-06-26T12:04:00;6.53;;;4.23;;
71639;SDS011;60912;48.968;10.124;2023-06-26T12:06:28;6.75;;;4.18;;
71639;SDS011;60912;48.968;10.124;2023-06-26T12:08:55;7.15;;;4.68;;
71639;SDS011;60912;48.968;10.124;2023-06-26T12:11:21;7.30;;;4.55;;
71639;SDS011;60912;48.968;10.124;2023-06-26T12:13:48;5.55;;;4.18;;
71639;SDS011;60912;48.968;10.124;2023-06-26T12:16:14;6.10;;;4.13;;
71639;SDS011;60912;48.968;10.124;2023-06-26T12:18:40;6.43;;;4.50;;
71639;SDS011;60912;48.968;10.124;2023-06-26T12:21:06;10.83;;;4.20;;
71639;SDS011;60912;48.968;10.124;2023-06-26T12:23:40;5.83;;;4.50;;
71639;SDS011;60912;48.968;10.124;2023-06-26T12:26:18;8.30;;;4.63;;
71639;SDS011;60912;48.968;10.124;2023-06-26T12:28:44;5.38;;;4.30;;
71639;SDS011;60912;48.968;10.124;2023-06-26T12:31:17;8.73;;;4.63;;
71639;SDS011;60912;48.968;10.124;2023-06-26T12:33:46;9.32;;;4.50;;
71639;SDS011;60912;48.968;10.124;2023-06-26T12:36:14;6.63;;;4.47;;
71639;SDS011;60912;48.968;10.124;2023-06-26T12:38:42;7.70;;;4.37;;
71639;SDS011;60912;48.968;10.124;2023-06-26T12:41:13;5.65;;;4.57;;
71639;SDS011;60912;48.968;10.124;2023-06-26T12:43:39;7.15;;;4.60;;
71639;SDS011;60912;48.968;10.124;2023-06-26T12:46:05;6.17;;;4.97;;
71639;SDS011;60912;48.968;10.124;2023-06-26T12:48:43;6.32;;;4.13;;
71639;SDS011;60912;48.968;10.124;2023-06-26T12:51:11;9.35;;;5.63;;
71639;SDS011;60912;48.968;10.124;2023-06-26T12:53:38;6.22;;;4.80;;
71639;SDS011;60912;48.968;10.124;2023-06-26T12:56:07;6.68;;;4.80;;
71639;SDS011;60912;48.968;10.124;2023-06-26T12:58:34;5.90;;;4.73;;
71639;SDS011;60912;48.968;10.124;2023-06-26T13:01:01;6.63;;;4.57;;
71639;SDS011;60912;48.968;10.124;2023-06-26T13:03:39;6.88;;;4.78;;
71639;SDS011;60912;48.968;10.124;2023-06-26T13:06:05;6.40;;;5.17;;
71639;SDS011;60912;48.968;10.124;2023-06-26T13:08:30;10.82;;;5.50;;
71639;SDS011;60912;48.968;10.124;2023-06-26T13:10:56;8.03;;;5.27;;
71639;SDS011;60912;48.968;10.124;2023-06-26T13:13:21;7.97;;;5.30;;
71639;SDS011;60912;48.968;10.124;2023-06-26T13:15:47;6.07;;;5.38;;
71639;SDS011;60912;48.968;10.124;2023-06-26T13:18:12;6.70;;;4.90;;
71639;SDS011;60912;48.968;10.124;2023-06-26T13:20:38;10.17;;;5.23;;
71639;SDS011;60912;48.968;10.124;2023-06-26T13:23:05;8.97;;;5.50;;
71639;SDS011;60912;48.968;10.124;2023-06-26T13:25:31;8.52;;;5.57;;
71639;SDS011;60912;48.968;10.124;2023-06-26T13:27:56;11.95;;;5.43;;
71639;SDS011;60912;48.968;10.124;2023-06-26T13:30:25;7.90;;;5.20;;
71639;SDS011;60912;48.968;10.124;2023-06-26T13:32:50;6.53;;;4.88;;
71639;SDS011;60912;48.968;10.124;2023-06-26T13:35:15;8.70;;;5.10;;
71639;SDS011;60912;48.968;10.124;2023-06-26T13:37:44;9.98;;;5.47;;
71639;SDS011;60912;48.968;10.124;2023-06-26T13:40:12;7.63;;;5.17;;
71639;SDS011;60912;48.968;10.124;2023-06-26T13:42:38;7.57;;;5.35;;
71639;SDS011;60912;48.968;10.124;2023-06-26T13:45:04;7.90;;;5.35;;
71639;SDS011;60912;48.968;10.124;2023-06-26T13:47:30;7.20;;;5.40;;
71639;SDS011;60912;48.968;10.124;2023-06-26T13:49:56;9.10;;;5.67;;
71639;SDS011;60912;48.968;10.124;2023-06-26T13:52:22;11.63;;;5.50;;
71639;SDS011;60912;48.968;10.124;2023-06-26T13:54:47;9.43;;;4.93;;
71639;SDS011;60912;48.968;10.124;2023-06-26T13:57:13;8.60;;;5.17;;
71639;SDS011;60912;48.968;10.124;2023-06-26T13:59:38;7.40;;;5.22;;
71639;SDS011;60912;48.968;10.124;2023-06-26T14:02:04;7.75;;;5.60;;
71639;SDS011;60912;48.968;10.124;2023-06-26T14:04:31;10.50;;;5.27;;
71639;SDS011;60912;48.968;10.124;2023-06-26T14:06:57;8.32;;;5.30;;
71639;SDS011;60912;48.968;10.124;2023-06-26T14:09:23;9.30;;;5.80;;
71639;SDS011;60912;48.968;10.124;2023-06-26T14:11:51;9.98;;;5.30;;
71639;SDS011;60912;48.968;10.124;2023-06-26T14:14:17;10.00;;;5.50;;
71639;SDS011;60912;48.968;10.124;2023-06-26T14:16:42;7.63;;;5.90;;
71639;SDS011;60912;48.968;10.124;2023-06-26T14:19:08;12.90;;;5.72;;
71639;SDS011;60912;48.968;10.124;2023-06-26T14:21:39;9.38;;;5.70;;
71639;SDS011;60912;48.968;10.124;2023-06-26T14:24:05;7.10;;;5.68;;
71639;SDS011;60912;48.968;10.124;2023-06-26T14:26:31;8.57;;;5.80;;
71639;SDS011;60912;48.968;10.124;2023-06-26T14:28:57;8.95;;;6.00;;
71639;SDS011;60912;48.968;10.124;2023-06-26T14:31:23;10.60;;;5.70;;
71639;SDS011;60912;48.968;10.124;2023-06-26T14:33:49;11.38;;;6.00;;
71639;SDS011;60912;48.968;10.124;2023-06-26T14:36:14;8.37;;;5.70;;
71639;SDS011;60912;48.968;10.124;2023-06-26T14:38:42;9.25;;;5.70;;
71639;SDS011;60912;48.968;10.124;2023-06-26T14:41:11;11.40;;;5.43;;
71639;SDS011;60912;48.968;10.124;2023-06-26T14:43:37;9.45;;;5.78;;
71639;SDS011;60912;48.968;10.124;2023-06-26T14:46:03;8.98;;;5.72;;
71639;SDS011;60912;48.968;10.124;2023-06-26T14:48:29;13.13;;;6.17;;
71639;SDS011;60912;48.968;10.124;2023-06-26T14:50:54;10.93;;;5.90;;